sensor_id;sensor_type;location;lat;lon;timestamp;P1;durP1;ratioP1;P2;durP2;ratioP2
67164;SDS011;54093;50.014;19.984;2023-03-02T00:07:48;16.83;;;7.65;;
67164;SDS011;54093;50.014;19.984;2023-03-02T00:17:09;12.82;;;9.50;;
67164;SDS011;54093;50.014;19.984;2023-03-02T00:26:31;21.85;;;11.18;;
67164;SDS011;54093;50.014;19.984;2023-03-02T00:45:17;22.88;;;11.80;;
67164;SDS011;54093;50.014;19.984;2023-03-02T00:54:38;17.23;;;10.45;;
67164;SDS011;54093;50.014;19.984;2023-03-02T01:03:59;20.15;;;9.13;;
67164;SDS011;54093;50.014;19.984;2023-03-02T01:13:20;20.05;;;10.13;;
67164;SDS011;54093;50.014;19.984;2023-03-02T01:22:42;29.25;;;14.02;;
67164;SDS011;54093;50.014;19.984;2023-03-02T01:32:04;20.65;;;12.55;;
67164;SDS011;54093;50.014;19.984;2023-03-02T01:41:25;36.15;;;17.15;;
67164;SDS011;54093;50.014;19.984;2023-03-02T01:50:47;29.67;;;15.70;;
67164;SDS011;54093;50.014;19.984;2023-03-02T02:00:08;20.35;;;11.70;;
67164;SDS011;54093;50.014;19.984;2023-03-02T02:09:35;36.80;;;17.00;;
67164;SDS011;54093;50.014;19.984;2023-03-02T02:19:00;30.58;;;15.38;;
67164;SDS011;54093;50.014;19.984;2023-03-02T02:28:24;43.28;;;18.02;;
67164;SDS011;54093;50.014;19.984;2023-03-02T02:37:49;29.13;;;14.88;;
67164;SDS011;54093;50.014;19.984;2023-03-02T02:47:16;14.73;;;8.38;;
67164;SDS011;54093;50.014;19.984;2023-03-02T02:56:40;18.02;;;9.13;;
67164;SDS011;54093;50.014;19.984;2023-03-02T03:06:06;14.70;;;7.78;;
67164;SDS011;54093;50.014;19.984;2023-03-02T03:15:33;34.22;;;14.18;;
67164;SDS011;54093;50.014;19.984;2023-03-02T03:24:54;16.38;;;10.65;;
67164;SDS011;54093;50.014;19.984;2023-03-02T03:34:15;26.10;;;12.30;;
67164;SDS011;54093;50.014;19.984;2023-03-02T03:43:36;21.80;;;10.95;;
67164;SDS011;54093;50.014;19.984;2023-03-02T03:52:58;33.25;;;16.13;;
67164;SDS011;54093;50.014;19.984;2023-03-02T04:02:19;12.20;;;8.73;;
67164;SDS011;54093;50.014;19.984;2023-03-02T04:11:41;17.55;;;9.30;;
67164;SDS011;54093;50.014;19.984;2023-03-02T04:21:03;37.58;;;18.23;;
67164;SDS011;54093;50.014;19.984;2023-03-02T04:30:24;38.38;;;18.88;;
67164;SDS011;54093;50.014;19.984;2023-03-02T04:39:46;14.05;;;8.80;;
67164;SDS011;54093;50.014;19.984;2023-03-02T04:49:11;41.13;;;18.52;;
67164;SDS011;54093;50.014;19.984;2023-03-02T04:58:33;37.78;;;15.35;;
67164;SDS011;54093;50.014;19.984;2023-03-02T05:07:54;51.40;;;21.67;;
67164;SDS011;54093;50.014;19.984;2023-03-02T05:17:15;36.53;;;16.77;;
67164;SDS011;54093;50.014;19.984;2023-03-02T05:26:36;28.02;;;14.93;;
67164;SDS011;54093;50.014;19.984;2023-03-02T05:35:57;27.35;;;13.63;;
67164;SDS011;54093;50.014;19.984;2023-03-02T05:45:24;41.33;;;15.80;;
67164;SDS011;54093;50.014;19.984;2023-03-02T05:54:47;29.73;;;12.82;;
67164;SDS011;54093;50.014;19.984;2023-03-02T06:04:08;19.63;;;10.35;;
67164;SDS011;54093;50.014;19.984;2023-03-02T06:13:29;18.60;;;9.07;;
67164;SDS011;54093;50.014;19.984;2023-03-02T06:22:50;15.73;;;10.65;;
67164;SDS011;54093;50.014;19.984;2023-03-02T06:32:11;36.28;;;18.02;;
67164;SDS011;54093;50.014;19.984;2023-03-02T06:41:32;53.45;;;21.55;;
67164;SDS011;54093;50.014;19.984;2023-03-02T06:50:53;32.15;;;14.77;;
67164;SDS011;54093;50.014;19.984;2023-03-02T07:00:14;53.90;;;24.17;;
67164;SDS011;54093;50.014;19.984;2023-03-02T07:09:44;49.28;;;22.75;;
67164;SDS011;54093;50.014;19.984;2023-03-02T07:19:05;45.58;;;19.83;;
67164;SDS011;54093;50.014;19.984;2023-03-02T07:28:26;66.25;;;29.13;;
67164;SDS011;54093;50.014;19.984;2023-03-02T07:37:47;77.25;;;30.65;;
67164;SDS011;54093;50.014;19.984;2023-03-02T07:47:08;55.42;;;23.73;;
67164;SDS011;54093;50.014;19.984;2023-03-02T07:56:29;67.88;;;26.30;;
67164;SDS011;54093;50.014;19.984;2023-03-02T08:05:50;46.78;;;21.05;;
67164;SDS011;54093;50.014;19.984;2023-03-02T08:15:15;41.85;;;21.27;;
67164;SDS011;54093;50.014;19.984;2023-03-02T08:24:36;49.67;;;22.98;;
67164;SDS011;54093;50.014;19.984;2023-03-02T08:34:01;59.40;;;25.15;;
67164;SDS011;54093;50.014;19.984;2023-03-02T08:43:22;57.38;;;23.60;;
67164;SDS011;54093;50.014;19.984;2023-03-02T08:52:44;46.50;;;23.08;;
67164;SDS011;54093;50.014;19.984;2023-03-02T09:02:05;51.03;;;23.73;;
67164;SDS011;54093;50.014;19.984;2023-03-02T09:11:27;61.15;;;27.13;;
67164;SDS011;54093;50.014;19.984;2023-03-02T09:20:51;41.47;;;21.30;;
67164;SDS011;54093;50.014;19.984;2023-03-02T09:30:13;47.05;;;21.95;;
67164;SDS011;54093;50.014;19.984;2023-03-02T09:39:35;39.35;;;21.05;;
67164;SDS011;54093;50.014;19.984;2023-03-02T09:49:11;41.78;;;20.55;;
67164;SDS011;54093;50.014;19.984;2023-03-02T09:59:02;44.17;;;19.77;;
67164;SDS011;54093;50.014;19.984;2023-03-02T10:08:28;43.53;;;21.08;;
67164;SDS011;54093;50.014;19.984;2023-03-02T10:18:03;32.67;;;18.20;;
67164;SDS011;54093;50.014;19.984;2023-03-02T10:27:47;36.80;;;17.15;;
67164;SDS011;54093;50.014;19.984;2023-03-02T10:37:13;28.70;;;15.02;;
67164;SDS011;54093;50.014;19.984;2023-03-02T10:46:45;42.45;;;19.40;;
67164;SDS011;54093;50.014;19.984;2023-03-02T10:56:13;25.52;;;14.95;;
67164;SDS011;54093;50.014;19.984;2023-03-02T11:05:40;28.80;;;14.57;;
67164;SDS011;54093;50.014;19.984;2023-03-02T11:24:52;16.95;;;10.10;;
67164;SDS011;54093;50.014;19.984;2023-03-02T11:34:31;27.42;;;12.23;;
67164;SDS011;54093;50.014;19.984;2023-03-02T11:44:15;17.70;;;9.77;;
67164;SDS011;54093;50.014;19.984;2023-03-02T11:53:40;11.63;;;9.15;;
67164;SDS011;54093;50.014;19.984;2023-03-02T12:03:15;16.45;;;9.77;;
67164;SDS011;54093;50.014;19.984;2023-03-02T12:12:46;19.63;;;10.93;;
67164;SDS011;54093;50.014;19.984;2023-03-02T12:22:28;9.48;;;8.52;;
67164;SDS011;54093;50.014;19.984;2023-03-02T12:31:51;10.15;;;7.93;;
67164;SDS011;54093;50.014;19.984;2023-03-02T12:51:16;12.63;;;8.13;;
67164;SDS011;54093;50.014;19.984;2023-03-02T13:00:47;17.10;;;8.45;;
67164;SDS011;54093;50.014;19.984;2023-03-02T13:10:30;12.43;;;7.90;;
67164;SDS011;54093;50.014;19.984;2023-03-02T13:20:01;10.82;;;7.22;;
67164;SDS011;54093;50.014;19.984;2023-03-02T13:29:25;16.02;;;9.02;;
67164;SDS011;54093;50.014;19.984;2023-03-02T13:38:47;17.13;;;8.95;;
67164;SDS011;54093;50.014;19.984;2023-03-02T13:48:13;13.30;;;9.18;;
67164;SDS011;54093;50.014;19.984;2023-03-02T13:57:34;15.13;;;9.05;;
67164;SDS011;54093;50.014;19.984;2023-03-02T14:06:56;13.60;;;8.98;;
67164;SDS011;54093;50.014;19.984;2023-03-02T14:16:17;11.70;;;8.95;;
67164;SDS011;54093;50.014;19.984;2023-03-02T14:25:38;18.52;;;10.18;;
67164;SDS011;54093;50.014;19.984;2023-03-02T14:34:59;15.98;;;9.25;;
67164;SDS011;54093;50.014;19.984;2023-03-02T14:44:20;13.80;;;9.32;;
67164;SDS011;54093;50.014;19.984;2023-03-02T14:53:42;16.58;;;10.00;;
67164;SDS011;54093;50.014;19.984;2023-03-02T15:03:03;15.20;;;8.10;;
67164;SDS011;54093;50.014;19.984;2023-03-02T15:12:24;14.25;;;8.93;;
67164;SDS011;54093;50.014;19.984;2023-03-02T15:21:45;10.65;;;8.65;;
67164;SDS011;54093;50.014;19.984;2023-03-02T15:31:11;18.75;;;9.45;;
67164;SDS011;54093;50.014;19.984;2023-03-02T15:40:34;14.13;;;8.80;;
67164;SDS011;54093;50.014;19.984;2023-03-02T15:49:56;13.23;;;8.45;;
67164;SDS011;54093;50.014;19.984;2023-03-02T15:59:17;19.80;;;9.48;;
67164;SDS011;54093;50.014;19.984;2023-03-02T16:08:45;20.25;;;10.18;;
67164;SDS011;54093;50.014;19.984;2023-03-02T16:18:06;18.52;;;9.18;;
67164;SDS011;54093;50.014;19.984;2023-03-02T16:27:37;15.98;;;9.93;;
67164;SDS011;54093;50.014;19.984;2023-03-02T16:37:01;19.35;;;9.90;;
67164;SDS011;54093;50.014;19.984;2023-03-02T16:46:23;14.73;;;8.25;;
67164;SDS011;54093;50.014;19.984;2023-03-02T16:55:47;13.30;;;9.23;;
67164;SDS011;54093;50.014;19.984;2023-03-02T17:05:09;15.77;;;10.77;;
67164;SDS011;54093;50.014;19.984;2023-03-02T17:14:31;21.83;;;10.77;;
67164;SDS011;54093;50.014;19.984;2023-03-02T17:23:52;21.88;;;11.40;;
67164;SDS011;54093;50.014;19.984;2023-03-02T17:33:14;13.32;;;9.25;;
67164;SDS011;54093;50.014;19.984;2023-03-02T17:42:36;18.00;;;9.98;;
67164;SDS011;54093;50.014;19.984;2023-03-02T17:51:57;15.38;;;10.13;;
67164;SDS011;54093;50.014;19.984;2023-03-02T18:01:18;13.65;;;8.95;;
67164;SDS011;54093;50.014;19.984;2023-03-02T18:10:39;20.40;;;11.95;;
67164;SDS011;54093;50.014;19.984;2023-03-02T18:20:00;19.98;;;10.75;;
67164;SDS011;54093;50.014;19.984;2023-03-02T18:29:22;22.20;;;10.60;;
67164;SDS011;54093;50.014;19.984;2023-03-02T18:38:43;25.15;;;11.43;;
67164;SDS011;54093;50.014;19.984;2023-03-02T18:48:04;29.50;;;13.48;;
67164;SDS011;54093;50.014;19.984;2023-03-02T18:57:25;33.95;;;15.57;;
67164;SDS011;54093;50.014;19.984;2023-03-02T19:06:47;30.25;;;12.93;;
67164;SDS011;54093;50.014;19.984;2023-03-02T19:16:09;40.65;;;17.42;;
67164;SDS011;54093;50.014;19.984;2023-03-02T19:25:30;44.08;;;19.95;;
67164;SDS011;54093;50.014;19.984;2023-03-02T19:34:51;39.50;;;17.35;;
67164;SDS011;54093;50.014;19.984;2023-03-02T19:44:13;42.47;;;18.40;;
67164;SDS011;54093;50.014;19.984;2023-03-02T19:53:34;50.08;;;19.52;;
67164;SDS011;54093;50.014;19.984;2023-03-02T20:02:57;65.63;;;29.17;;
67164;SDS011;54093;50.014;19.984;2023-03-02T20:12:19;76.90;;;31.95;;
67164;SDS011;54093;50.014;19.984;2023-03-02T20:21:40;41.88;;;19.88;;
67164;SDS011;54093;50.014;19.984;2023-03-02T20:31:03;37.15;;;19.27;;
67164;SDS011;54093;50.014;19.984;2023-03-02T20:40:29;48.50;;;19.15;;
67164;SDS011;54093;50.014;19.984;2023-03-02T20:49:50;42.22;;;19.63;;
67164;SDS011;54093;50.014;19.984;2023-03-02T20:59:15;46.83;;;19.55;;
67164;SDS011;54093;50.014;19.984;2023-03-02T21:08:38;39.47;;;18.33;;
67164;SDS011;54093;50.014;19.984;2023-03-02T21:17:59;57.78;;;25.65;;
67164;SDS011;54093;50.014;19.984;2023-03-02T21:27:21;48.22;;;19.92;;
67164;SDS011;54093;50.014;19.984;2023-03-02T21:36:42;40.45;;;18.45;;
67164;SDS011;54093;50.014;19.984;2023-03-02T21:46:03;53.38;;;23.02;;
67164;SDS011;54093;50.014;19.984;2023-03-02T21:55:26;42.33;;;18.40;;
67164;SDS011;54093;50.014;19.984;2023-03-02T22:04:48;38.60;;;17.75;;
67164;SDS011;54093;50.014;19.984;2023-03-02T22:14:13;47.42;;;23.85;;
67164;SDS011;54093;50.014;19.984;2023-03-02T22:23:35;39.75;;;19.70;;
67164;SDS011;54093;50.014;19.984;2023-03-02T22:32:56;52.35;;;21.63;;
67164;SDS011;54093;50.014;19.984;2023-03-02T22:42:20;55.78;;;23.60;;
67164;SDS011;54093;50.014;19.984;2023-03-02T22:51:43;32.22;;;15.57;;
67164;SDS011;54093;50.014;19.984;2023-03-02T23:01:05;36.90;;;16.20;;
67164;SDS011;54093;50.014;19.984;2023-03-02T23:10:57;44.78;;;20.73;;
67164;SDS011;54093;50.014;19.984;2023-03-02T23:20:19;37.03;;;15.95;;
67164;SDS011;54093;50.014;19.984;2023-03-02T23:29:43;27.35;;;13.95;;
67164;SDS011;54093;50.014;19.984;2023-03-02T23:39:04;40.72;;;14.73;;
67164;SDS011;54093;50.014;19.984;2023-03-02T23:48:27;30.83;;;14.10;;
67164;SDS011;54093;50.014;19.984;2023-03-02T23:57:48;50.60;;;21.42;;
